map of CGZ home
CGZ - Airport
Location
City:  Casa Grande, Arizona, United States
Name:Casa Grande Municipal Airport
ICAO:KCGZ
IATA:CGZ
FAA LID:CGZ

Details
Type:Airport (Airfield)
Use:Public/Civil
Latitude:3257'18"N (32.954889)
Longitude:11146'01"W (-111.766832)
Datum:WGS 1984
Elevation:1464 ft (446 m)
Variation:10.04E (WMM2015v2 magnetic declination)
-0.09 annual change
Runways:1
Longest:5200 × 100 ft (1585 × 30.5 m), paved

Time
Time Zone:UTC-7
Local Time:

Weather
METAR:KCGZ 041356Z AUTO 10007KT 10SM BKN037 OVC050 13/12 A2988 RMK AO2 RAE14 SLP115 T01280122 PNO $

Related Locations
Nearby:
Farthest:RRG: 11474 mi / 18466 km
Plaine Corail [Sir Gatan Duval Airport (Plaine Corail Airport)], Rodrigues Island, MU

Find:

   beyond  
but within

Other Information
Maps:
NOTAMs:
Links:
Sources:

  
  • flag of United States
  • flag of Arizona
  

Sectional Chart

Flight Planning
at skyvector.com

Satellite Image

Google Maps Satellite view

 

Copyright © 2004-2019 Karl L. Swartz. All rights reserved.
The Great Circle Mapper name and logo are trademarks of the Great Circle Mapper.
All other trademarks mentioned herein belong to their respective owners.
Please see credits for attibutions and further copyright information.

  Follow gcmap on Facebook Follow gcmap on Twitter GCmap on LinkedIn

hCard Microformat

Geo Microformat